MHLM/SAP METAR and TAF weather

Enter ICAO airport designator
Station Type Date Time Source
MHLM METAR 2022/01/18 07:00 UTC NOAA

MHLM 180700Z VRB03KT 9999 SCT022 BKN080 20/18 Q1019 A3009 NOSIG


Station Type Date Time Source
MHLM Decoded METAR 2022/01/18 07:00 UTC NOAA

La Mesa San Pedro Sula , Honduras (MHLM) 15-27N 087-56W 31M
Jan 18, 2022 - 02:00 AM EST / 2022.01.18 0700 UTC
Wind: Variable at 3 MPH (3 KT):0
Visibility: greater than 7 mile(s):0
Sky conditions: mostly cloudy
Temperature: 68 F (20 C)
Dew Point: 64 F (18 C)
Relative Humidity: 88%
Pressure (altimeter): 30.09 in. Hg (1018 hPa)
ob: MHLM 180700Z VRB03KT 9999 SCT022 BKN080 20/18 Q1019 A3009 NOSIG
cycle: 7

Station Type Date Time Source
MHLM TAF 2022/01/18 06:04 UTC NOAA

TAF MHLM 180500Z 1806/1906 06006KT 9999 SCT022 BKN080 TX26/1821Z TN18/1812Z
BECMG 1901/1903 FEW028

Example: see airport list